Hopewell Township, New Jersey
Current Conditions -  °F | °C
As of 12:53 AM on Sunday 23 Nov 2014 (Local Time) from KTTN Reporting Station
Overcast Overcast  
Wind Chill: 36°   Ceiling: 11000
Heat Index: 41°   Visibility: 10mi
Dew Point: 22°   Wind: 7mph
Humidity: 47%   Direction: 230°SW
Pressure: 30.21"   Gusts: NA
Location:  40.3975°N, 74.7746°W
Report Text: KTTN 230553Z AUTO 23006KT 10SM OVC110 05/M06 A3021 RMK AO2 SLP226 T00501056 10061 20044 58007
Loading
Personal Weather Stations






























Interactive Weather Map New forecast layout! Learn more

10-Day Weather Forecast

Advertisements
Track Severe Weather on mobile